Time;durP1;ratioP1;P1;durP2;ratioP2;P2;SDS_P1;SDS_P2;PMS_P1;PMS_P2;Temp;Humidity;BMP_temperature;BMP_pressure;BME280_temperature;BME280_humidity;BME280_pressure;Samples;Min_cycle;Max_cycle;Signal;HPM_P1;HPM_P2
2023/10/18 00:01:33;;;;;;;185.63;11.40;;;;;;;;;;4898926;29;20032;-53
2023/10/18 00:03:59;;;;;;;172.82;11.48;;;;;;;;;;4898705;29;20028;-54
2023/10/18 00:06:24;;;;;;;155.90;9.65;;;;;;;;;;4900604;29;20047;-53
2023/10/18 00:08:57;;;;;;;191.80;10.30;;;;;;;;;;4899872;29;20020;-54
2023/10/18 00:11:24;;;;;;;126.55;8.60;;;;;;;;;;4900411;29;20044;-54
2023/10/18 00:13:52;;;;;;;206.23;11.45;;;;;;;;;;4899979;29;20162;-54
2023/10/18 00:16:18;;;;;;;129.73;10.18;;;;;;;;;;4900084;29;20445;-53
2023/10/18 00:18:43;;;;;;;121.55;8.57;;;;;;;;;;4901614;29;20055;-54
2023/10/18 00:21:08;;;;;;;154.65;9.00;;;;;;;;;;4899530;29;20051;-53
2023/10/18 00:23:34;;;;;;;142.05;9.60;;;;;;;;;;4899705;29;20069;-53
2023/10/18 00:26:09;;;;;;;166.90;10.63;;;;;;;;;;4900225;29;20575;-54
2023/10/18 00:28:37;;;;;;;394.50;154.63;;;;;;;;;;4901324;29;20040;-54
2023/10/18 00:31:18;;;;;;;163.70;10.63;;;;;;;;;;4899532;29;20036;-53
2023/10/18 00:33:44;;;;;;;187.93;11.70;;;;;;;;;;4901040;29;20427;-55
2023/10/18 00:36:17;;;;;;;149.60;10.05;;;;;;;;;;4900325;29;20681;-54
2023/10/18 00:38:48;;;;;;;204.15;11.13;;;;;;;;;;4898969;29;20055;-53
2023/10/18 00:41:21;;;;;;;145.27;9.17;;;;;;;;;;4899185;29;20047;-53
2023/10/18 00:43:47;;;;;;;199.65;11.95;;;;;;;;;;4899654;29;20028;-54
2023/10/18 00:46:15;;;;;;;172.18;10.52;;;;;;;;;;4900213;29;20040;-54
2023/10/18 00:48:40;;;;;;;124.57;8.68;;;;;;;;;;4901496;29;20028;-53
2023/10/18 00:51:09;;;;;;;203.23;12.00;;;;;;;;;;4898643;29;20452;-53
2023/10/18 00:53:35;;;;;;;162.52;9.85;;;;;;;;;;4900634;29;20032;-53
2023/10/18 00:56:00;;;;;;;191.23;11.30;;;;;;;;;;4899923;28;20375;-53
2023/10/18 00:58:29;;;;;;;174.90;10.80;;;;;;;;;;4901474;29;20439;-53
2023/10/18 01:00:58;;;;;;;200.35;11.88;;;;;;;;;;4898702;29;20426;-54
2023/10/18 01:03:35;;;;;;;137.10;9.85;;;;;;;;;;4900791;29;20031;-54
2023/10/18 01:06:04;;;;;;;180.45;11.70;;;;;;;;;;4899581;29;20036;-54
2023/10/18 01:08:29;;;;;;;142.93;9.95;;;;;;;;;;4898929;29;20535;-53
2023/10/18 01:11:07;;;;;;;178.02;11.15;;;;;;;;;;4898363;29;20036;-53
2023/10/18 01:13:37;;;;;;;147.93;10.15;;;;;;;;;;4900682;29;20028;-52
2023/10/18 01:16:05;;;;;;;157.32;10.85;;;;;;;;;;4897495;29;20047;-54
2023/10/18 01:18:31;;;;;;;148.07;10.48;;;;;;;;;;4899889;29;20029;-54
2023/10/18 01:20:56;;;;;;;167.55;12.43;;;;;;;;;;4898530;29;20028;-53
2023/10/18 01:23:21;;;;;;;197.82;11.13;;;;;;;;;;4898838;29;20020;-53
2023/10/18 01:25:47;;;;;;;158.45;8.77;;;;;;;;;;4900037;29;20715;-53
2023/10/18 01:28:12;;;;;;;192.88;20.67;;;;;;;;;;4901080;29;20063;-53
2023/10/18 01:30:38;;;;;;;140.93;8.63;;;;;;;;;;4902449;29;20328;-57
2023/10/18 01:33:10;;;;;;;241.38;14.00;;;;;;;;;;4901154;29;20067;-55
2023/10/18 01:35:39;;;;;;;166.95;11.50;;;;;;;;;;4901982;29;20040;-54
2023/10/18 01:38:05;;;;;;;233.85;13.70;;;;;;;;;;4901387;29;20091;-54
2023/10/18 01:40:42;;;;;;;217.57;11.43;;;;;;;;;;4901371;29;20044;-56
2023/10/18 01:43:10;;;;;;;207.65;13.35;;;;;;;;;;4900924;29;20052;-53
2023/10/18 01:45:39;;;;;;;189.95;12.45;;;;;;;;;;4900843;29;20037;-54
2023/10/18 01:48:09;;;;;;;217.50;13.63;;;;;;;;;;4900374;29;20025;-52
2023/10/18 01:50:35;;;;;;;181.50;11.70;;;;;;;;;;4902281;29;20048;-54
2023/10/18 01:53:00;;;;;;;209.13;13.25;;;;;;;;;;4901788;29;20032;-53
2023/10/18 01:55:28;;;;;;;142.20;11.38;;;;;;;;;;4901275;29;20024;-54
2023/10/18 01:57:53;;;;;;;170.65;11.48;;;;;;;;;;4900218;29;20073;-53
2023/10/18 02:00:25;;;;;;;137.32;10.35;;;;;;;;;;4898870;29;20132;-54
2023/10/18 02:02:50;;;;;;;150.38;10.93;;;;;;;;;;4902008;29;20479;-54
2023/10/18 02:05:16;;;;;;;186.82;11.85;;;;;;;;;;4899846;29;20091;-53
2023/10/18 02:07:42;;;;;;;149.98;10.63;;;;;;;;;;4903107;29;20035;-53
2023/10/18 02:10:07;;;;;;;189.25;12.45;;;;;;;;;;4899549;29;20024;-55
2023/10/18 02:12:36;;;;;;;193.82;12.20;;;;;;;;;;4900970;29;20299;-54
2023/10/18 02:15:01;;;;;;;282.63;54.55;;;;;;;;;;4900571;29;20032;-54
2023/10/18 02:17:27;;;;;;;148.45;11.63;;;;;;;;;;4901514;29;20465;-54
2023/10/18 02:19:53;;;;;;;506.92;149.93;;;;;;;;;;4901114;29;20028;-53
2023/10/18 02:22:19;;;;;;;146.38;11.05;;;;;;;;;;4901336;29;20440;-54
2023/10/18 02:24:44;;;;;;;196.43;12.35;;;;;;;;;;4900886;29;20603;-54
2023/10/18 02:27:15;;;;;;;231.52;13.02;;;;;;;;;;4900489;29;20094;-54
2023/10/18 02:29:40;;;;;;;178.63;11.10;;;;;;;;;;4901904;29;20028;-54
2023/10/18 02:32:21;;;;;;;261.77;14.20;;;;;;;;;;4900030;29;20489;-53
2023/10/18 02:34:47;;;;;;;159.73;10.50;;;;;;;;;;4900238;29;20127;-55
2023/10/18 02:37:12;;;;;;;223.25;12.68;;;;;;;;;;4899588;28;20058;-54
2023/10/18 02:39:39;;;;;;;184.35;10.27;;;;;;;;;;4900900;29;20297;-53
2023/10/18 02:42:04;;;;;;;191.63;15.93;;;;;;;;;;4899260;29;20313;-54
2023/10/18 02:44:29;;;;;;;198.52;11.70;;;;;;;;;;4900912;29;20560;-55
2023/10/18 02:46:58;;;;;;;195.82;12.00;;;;;;;;;;4898885;29;20589;-53
2023/10/18 02:49:27;;;;;;;129.02;10.20;;;;;;;;;;4900541;29;20028;-54
2023/10/18 02:51:52;;;;;;;180.82;12.48;;;;;;;;;;4900448;29;20127;-54
2023/10/18 02:54:21;;;;;;;199.93;11.68;;;;;;;;;;4899044;29;20031;-54
2023/10/18 02:56:50;;;;;;;142.57;9.85;;;;;;;;;;4900016;29;20040;-54
2023/10/18 02:59:17;;;;;;;175.93;9.93;;;;;;;;;;4900019;29;21530;-54
2023/10/18 03:01:43;;;;;;;160.25;10.30;;;;;;;;;;4900413;29;20043;-54
2023/10/18 03:04:09;;;;;;;199.23;11.80;;;;;;;;;;4899797;29;20668;-54
2023/10/18 03:06:37;;;;;;;158.18;11.60;;;;;;;;;;4899686;29;20056;-54
2023/10/18 03:09:03;;;;;;;176.27;10.77;;;;;;;;;;4899874;29;20682;-54
2023/10/18 03:11:31;;;;;;;180.07;12.65;;;;;;;;;;4899906;29;20111;-54
2023/10/18 03:14:01;;;;;;;195.07;13.38;;;;;;;;;;4899320;29;20172;-54
2023/10/18 03:16:54;;;;;;;143.27;10.82;;;;;;;;;;4900662;29;20498;-54
2023/10/18 03:19:18;;;;;;;232.23;14.02;;;;;;;;;;4897680;29;20028;-54
2023/10/18 03:21:47;;;;;;;166.52;11.63;;;;;;;;;;4899446;29;20040;-53
2023/10/18 03:24:13;;;;;;;231.30;19.05;;;;;;;;;;4899560;29;20036;-54
2023/10/18 03:26:38;;;;;;;138.43;10.73;;;;;;;;;;4901306;29;20460;-54
2023/10/18 03:29:15;;;;;;;199.90;12.38;;;;;;;;;;4899872;29;20713;-54
2023/10/18 03:31:41;;;;;;;182.57;11.88;;;;;;;;;;4899606;29;20151;-54
2023/10/18 03:34:11;;;;;;;206.43;13.18;;;;;;;;;;4899996;29;20051;-54
2023/10/18 03:36:48;;;;;;;128.38;10.35;;;;;;;;;;4899644;29;20032;-53
2023/10/18 03:39:15;;;;;;;181.82;13.23;;;;;;;;;;4900812;29;20111;-53
2023/10/18 03:41:41;;;;;;;149.55;12.18;;;;;;;;;;4901020;29;20048;-54
2023/10/18 03:44:09;;;;;;;224.02;13.95;;;;;;;;;;4900213;29;20042;-54
2023/10/18 03:49:38;;;;;;;169.47;11.47;;;;;;;;;;4891063;29;20032;-55
2023/10/18 03:57:20;;;;;;;157.20;11.07;;;;;;;;;;4898645;29;20032;-54
2023/10/18 03:59:52;;;;;;;138.93;8.82;;;;;;;;;;4900114;29;20496;-54
2023/10/18 04:04:48;;;;;;;185.48;12.38;;;;;;;;;;4900825;29;20103;-54
2023/10/18 04:07:17;;;;;;;183.63;12.65;;;;;;;;;;4899331;29;20028;-54
2023/10/18 04:12:19;;;;;;;274.60;15.55;;;;;;;;;;4898476;29;20362;-53
2023/10/18 04:14:55;;;;;;;150.95;11.27;;;;;;;;;;4899284;29;20062;-53
2023/10/18 04:17:31;;;;;;;184.10;19.95;;;;;;;;;;4898179;28;20032;-53
2023/10/18 04:19:57;;;;;;;216.23;12.65;;;;;;;;;;4899482;29;20035;-53
2023/10/18 04:22:22;;;;;;;169.65;11.88;;;;;;;;;;4898733;29;20040;-54
2023/10/18 04:24:49;;;;;;;171.23;11.40;;;;;;;;;;4899902;29;20039;-54
2023/10/18 04:27:14;;;;;;;220.38;13.95;;;;;;;;;;4898778;29;20567;-54
2023/10/18 04:29:40;;;;;;;177.30;12.55;;;;;;;;;;4901130;29;20024;-53
2023/10/18 04:32:15;;;;;;;189.38;12.60;;;;;;;;;;4898679;29;20256;-53
2023/10/18 04:34:41;;;;;;;164.07;11.25;;;;;;;;;;4900187;29;20086;-53
2023/10/18 04:37:09;;;;;;;220.10;14.17;;;;;;;;;;4897414;29;20460;-53
2023/10/18 04:39:35;;;;;;;140.77;17.38;;;;;;;;;;4900264;29;20811;-52
2023/10/18 04:42:03;;;;;;;191.45;10.88;;;;;;;;;;4898282;28;20044;-52
2023/10/18 04:44:28;;;;;;;142.30;12.85;;;;;;;;;;4900227;29;20043;-54
2023/10/18 04:46:59;;;;;;;174.13;11.57;;;;;;;;;;4899717;29;20269;-53
2023/10/18 04:49:38;;;;;;;160.52;12.55;;;;;;;;;;4899286;29;20271;-54
2023/10/18 04:52:09;;;;;;;153.32;11.45;;;;;;;;;;4899178;29;20333;-53
2023/10/18 04:54:37;;;;;;;358.67;99.40;;;;;;;;;;4900286;29;20031;-54
2023/10/18 04:57:05;;;;;;;182.65;12.23;;;;;;;;;;4896888;29;20292;-53
2023/10/18 04:59:34;;;;;;;183.52;17.13;;;;;;;;;;4900273;29;20031;-54
2023/10/18 05:01:59;;;;;;;162.55;12.75;;;;;;;;;;4902047;29;20071;-54
2023/10/18 05:07:40;;;;;;;191.70;13.13;;;;;;;;;;4901721;29;20090;-53
2023/10/18 05:09:55;;;;;;;187.45;11.68;;;;;;;;;;4903375;29;20044;-55
2023/10/18 05:17:30;;;;;;;170.48;12.40;;;;;;;;;;4901668;29;20061;-54
2023/10/18 05:19:56;;;;;;;191.73;13.48;;;;;;;;;;4902762;29;20313;-53
2023/10/18 05:22:24;;;;;;;125.32;11.18;;;;;;;;;;4900848;29;20514;-54
2023/10/18 05:24:56;;;;;;;181.65;13.80;;;;;;;;;;4903907;29;20024;-54
2023/10/18 05:27:24;;;;;;;159.85;12.35;;;;;;;;;;4900816;29;20068;-54
2023/10/18 05:29:53;;;;;;;192.00;13.70;;;;;;;;;;4904002;29;20031;-54
2023/10/18 05:35:22;;;;;;;239.93;15.95;;;;;;;;;;4903451;29;20036;-55
2023/10/18 05:38:18;;;;;;;255.77;15.48;;;;;;;;;;4901843;29;20040;-55
2023/10/18 05:43:04;;;;;;;168.50;12.52;;;;;;;;;;4902271;29;20193;-54
2023/10/18 05:45:31;;;;;;;157.93;12.50;;;;;;;;;;4902059;29;20362;-55
2023/10/18 05:47:57;;;;;;;142.80;9.10;;;;;;;;;;4902833;29;20043;-53
2023/10/18 05:50:24;;;;;;;156.38;12.30;;;;;;;;;;4899721;29;20028;-53
2023/10/18 05:52:50;;;;;;;174.43;15.80;;;;;;;;;;4902778;29;20428;-53
2023/10/18 05:55:15;;;;;;;238.48;15.50;;;;;;;;;;4899848;29;20181;-54
2023/10/18 05:57:41;;;;;;;149.48;12.75;;;;;;;;;;4902052;29;20059;-54
2023/10/18 06:00:16;;;;;;;183.30;13.50;;;;;;;;;;4900754;29;20480;-53
2023/10/18 06:02:41;;;;;;;182.75;14.15;;;;;;;;;;4902588;29;20043;-54
2023/10/18 06:05:09;;;;;;;209.50;15.23;;;;;;;;;;4901349;29;20024;-54
2023/10/18 06:07:35;;;;;;;142.35;14.50;;;;;;;;;;4903494;29;20063;-55
2023/10/18 06:10:03;;;;;;;176.05;13.27;;;;;;;;;;4902717;29;20040;-56
2023/10/18 06:12:30;;;;;;;181.43;11.73;;;;;;;;;;4900805;29;20041;-54
2023/10/18 06:14:57;;;;;;;142.27;12.60;;;;;;;;;;4902023;29;20349;-54
2023/10/18 06:17:22;;;;;;;197.00;14.10;;;;;;;;;;4900358;29;20099;-54
2023/10/18 06:19:50;;;;;;;228.82;14.23;;;;;;;;;;4902309;29;20035;-55
2023/10/18 06:22:27;;;;;;;207.48;15.30;;;;;;;;;;4901595;29;20326;-54
2023/10/18 06:24:52;;;;;;;198.55;14.02;;;;;;;;;;4902480;29;20024;-55
2023/10/18 06:27:17;;;;;;;175.73;14.38;;;;;;;;;;4901973;29;20040;-54
2023/10/18 06:29:43;;;;;;;189.18;13.50;;;;;;;;;;4903709;29;20058;-55
2023/10/18 06:32:13;;;;;;;171.35;11.85;;;;;;;;;;4900011;29;20451;-55
2023/10/18 06:34:40;;;;;;;150.35;12.13;;;;;;;;;;4900801;29;20515;-54
2023/10/18 06:37:08;;;;;;;154.85;13.20;;;;;;;;;;4900786;29;20091;-53
2023/10/18 06:39:37;;;;;;;180.50;13.20;;;;;;;;;;4902094;29;20092;-56
2023/10/18 06:42:06;;;;;;;151.98;13.40;;;;;;;;;;4901415;29;20047;-54
2023/10/18 06:44:33;;;;;;;138.48;13.88;;;;;;;;;;4902729;29;20039;-54
2023/10/18 06:47:01;;;;;;;169.80;12.82;;;;;;;;;;4902249;29;20153;-56
2023/10/18 06:49:26;;;;;;;179.15;13.77;;;;;;;;;;4901911;29;20587;-55
2023/10/18 06:51:52;;;;;;;172.77;12.13;;;;;;;;;;4902027;29;20043;-55
2023/10/18 06:54:32;;;;;;;197.75;14.48;;;;;;;;;;4901307;29;20706;-53
2023/10/18 06:56:58;;;;;;;129.05;12.13;;;;;;;;;;4901052;29;20527;-55
2023/10/18 06:59:27;;;;;;;233.85;12.90;;;;;;;;;;4901274;29;20034;-55
2023/10/18 07:01:58;;;;;;;252.30;15.52;;;;;;;;;;4897042;29;20174;-56
2023/10/18 07:04:35;;;;;;;204.23;15.30;;;;;;;;;;4902519;29;20538;-55
2023/10/18 07:07:00;;;;;;;117.57;12.77;;;;;;;;;;4903024;29;20088;-54
2023/10/18 07:09:26;;;;;;;183.80;12.45;;;;;;;;;;4903759;29;20039;-55
2023/10/18 07:12:03;;;;;;;167.90;21.88;;;;;;;;;;4901883;29;20076;-54
2023/10/18 07:14:30;;;;;;;137.68;12.60;;;;;;;;;;4902750;29;20106;-55
2023/10/18 07:16:56;;;;;;;130.80;12.90;;;;;;;;;;4902738;29;20032;-53
2023/10/18 07:21:49;;;;;;;127.60;10.60;;;;;;;;;;4902628;29;20040;-55
2023/10/18 07:24:17;;;;;;;178.98;13.43;;;;;;;;;;4902303;29;20141;-55
2023/10/18 07:26:42;;;;;;;126.88;12.20;;;;;;;;;;4903746;29;20043;-55
2023/10/18 07:29:08;;;;;;;129.63;11.73;;;;;;;;;;4901443;29;20020;-53
2023/10/18 07:31:38;;;;;;;142.73;11.27;;;;;;;;;;4903511;29;20035;-54
2023/10/18 07:34:03;;;;;;;200.90;51.67;;;;;;;;;;4903248;29;20089;-56
2023/10/18 07:36:29;;;;;;;142.07;11.25;;;;;;;;;;4901702;29;20028;-55
2023/10/18 07:38:57;;;;;;;106.40;12.10;;;;;;;;;;4903550;29;20031;-56
2023/10/18 07:41:28;;;;;;;203.75;14.45;;;;;;;;;;4902278;29;20554;-55
2023/10/18 07:43:55;;;;;;;132.00;12.33;;;;;;;;;;4903686;29;20496;-53
2023/10/18 07:46:24;;;;;;;197.40;48.03;;;;;;;;;;4903077;29;20508;-54
2023/10/18 07:48:53;;;;;;;116.53;14.10;;;;;;;;;;4905378;29;20028;-55
2023/10/18 07:51:24;;;;;;;168.32;12.20;;;;;;;;;;4902669;29;20151;-55
2023/10/18 07:53:53;;;;;;;169.20;12.93;;;;;;;;;;4901663;29;20020;-55
2023/10/18 07:56:19;;;;;;;358.33;116.90;;;;;;;;;;4902612;29;20863;-55
2023/10/18 07:58:53;;;;;;;117.38;10.23;;;;;;;;;;4904900;29;20641;-54
2023/10/18 08:01:46;;;;;;;208.05;14.93;;;;;;;;;;4901750;29;20055;-54
2023/10/18 08:04:04;;;;;;;123.90;11.68;;;;;;;;;;4904428;29;20045;-56
2023/10/18 08:06:33;;;;;;;118.68;9.60;;;;;;;;;;4903407;29;20110;-53
2023/10/18 08:09:03;;;;;;;161.65;42.47;;;;;;;;;;4904355;29;20042;-54
2023/10/18 08:11:32;;;;;;;207.05;48.22;;;;;;;;;;4901877;29;20583;-55
2023/10/18 08:13:57;;;;;;;127.10;9.38;;;;;;;;;;4902846;29;20111;-55
2023/10/18 08:16:27;;;;;;;190.57;15.10;;;;;;;;;;4902060;29;20127;-55
2023/10/18 08:18:52;;;;;;;88.95;10.20;;;;;;;;;;4902955;29;20024;-56
2023/10/18 08:21:28;;;;;;;204.75;16.58;;;;;;;;;;4902621;29;20214;-55
2023/10/18 08:23:55;;;;;;;128.27;12.85;;;;;;;;;;4903337;29;20519;-54
2023/10/18 08:26:21;;;;;;;215.02;15.32;;;;;;;;;;4902276;29;20033;-56
2023/10/18 08:28:46;;;;;;;117.43;11.18;;;;;;;;;;4903503;29;20020;-56
2023/10/18 08:31:15;;;;;;;132.50;26.63;;;;;;;;;;4903528;29;20096;-54
2023/10/18 08:33:41;;;;;;;220.32;68.45;;;;;;;;;;4903418;29;20075;-55
2023/10/18 08:36:09;;;;;;;143.07;24.70;;;;;;;;;;4902446;29;20028;-58
2023/10/18 08:38:35;;;;;;;369.63;207.57;;;;;;;;;;4902604;29;20020;-54
2023/10/18 08:41:13;;;;;;;126.43;19.73;;;;;;;;;;4902995;29;20425;-55
2023/10/18 08:43:59;;;;;;;131.23;29.33;;;;;;;;;;4904218;29;20024;-56
2023/10/18 08:46:26;;;;;;;188.68;16.08;;;;;;;;;;4902479;29;20765;-54
2023/10/18 08:48:53;;;;;;;221.07;120.68;;;;;;;;;;4904301;29;20047;-58
2023/10/18 08:51:19;;;;;;;377.95;182.98;;;;;;;;;;4899781;29;20131;-57
2023/10/18 08:53:45;;;;;;;360.42;174.93;;;;;;;;;;4903789;29;20115;-57
2023/10/18 08:56:11;;;;;;;204.25;82.65;;;;;;;;;;4902780;29;20044;-54
2023/10/18 08:58:37;;;;;;;132.00;10.07;;;;;;;;;;4902279;29;20066;-56
2023/10/18 09:01:03;;;;;;;117.55;10.95;;;;;;;;;;4901594;29;20242;-54
2023/10/18 09:03:29;;;;;;;207.32;42.53;;;;;;;;;;4902365;29;20055;-56
2023/10/18 09:06:04;;;;;;;204.38;82.22;;;;;;;;;;4902845;29;20059;-56
2023/10/18 09:08:35;;;;;;;172.65;12.45;;;;;;;;;;4903102;29;20024;-57
2023/10/18 09:11:04;;;;;;;315.38;190.90;;;;;;;;;;4902752;29;20044;-56
2023/10/18 09:13:33;;;;;;;198.02;16.05;;;;;;;;;;4901717;29;20437;-56
2023/10/18 09:16:01;;;;;;;269.60;128.18;;;;;;;;;;4901899;29;20047;-56
2023/10/18 09:18:30;;;;;;;202.13;12.93;;;;;;;;;;4901368;29;20709;-55
2023/10/18 09:20:56;;;;;;;237.93;134.13;;;;;;;;;;4901883;29;20060;-55
2023/10/18 09:23:25;;;;;;;187.63;12.45;;;;;;;;;;4902331;29;20455;-57
2023/10/18 09:26:05;;;;;;;157.77;44.88;;;;;;;;;;4902937;29;20036;-57
2023/10/18 09:28:35;;;;;;;187.05;68.85;;;;;;;;;;4903430;29;20261;-54
2023/10/18 09:31:10;;;;;;;256.17;95.05;;;;;;;;;;4902540;29;20415;-56
2023/10/18 09:33:37;;;;;;;171.95;89.50;;;;;;;;;;4901956;29;20115;-55
2023/10/18 09:36:18;;;;;;;143.23;54.65;;;;;;;;;;4902570;29;20177;-57
2023/10/18 09:38:43;;;;;;;125.88;48.95;;;;;;;;;;4903839;29;20020;-57
2023/10/18 09:41:08;;;;;;;168.93;66.53;;;;;;;;;;4902777;29;20043;-55
2023/10/18 09:43:36;;;;;;;154.07;15.77;;;;;;;;;;4903247;29;20106;-57
2023/10/18 09:46:03;;;;;;;161.82;87.25;;;;;;;;;;4903418;29;20282;-56
2023/10/18 09:48:31;;;;;;;296.80;136.77;;;;;;;;;;4904987;29;20111;-56
2023/10/18 09:51:06;;;;;;;100.00;9.85;;;;;;;;;;4906129;29;20044;-55
2023/10/18 09:53:32;;;;;;;202.13;28.27;;;;;;;;;;4905156;29;20501;-54
2023/10/18 09:55:59;;;;;;;94.18;18.23;;;;;;;;;;4897319;29;20060;-56
2023/10/18 09:58:24;;;;;;;185.52;25.23;;;;;;;;;;4905677;29;20241;-56
2023/10/18 10:00:57;;;;;;;140.38;31.65;;;;;;;;;;4905980;29;20091;-57
2023/10/18 10:03:26;;;;;;;217.95;56.47;;;;;;;;;;4906440;29;20043;-56
2023/10/18 10:05:52;;;;;;;174.32;64.55;;;;;;;;;;4906607;29;20181;-57
2023/10/18 10:08:23;;;;;;;175.50;62.67;;;;;;;;;;4906305;29;20051;-56
2023/10/18 10:10:49;;;;;;;206.38;107.72;;;;;;;;;;4905781;29;20044;-56
2023/10/18 10:13:18;;;;;;;186.18;95.53;;;;;;;;;;4905771;29;20081;-55
2023/10/18 10:15:45;;;;;;;147.85;66.10;;;;;;;;;;4905198;28;20055;-56
2023/10/18 10:18:12;;;;;;;155.27;51.20;;;;;;;;;;4905546;29;20071;-55
2023/10/18 10:20:40;;;;;;;229.95;108.30;;;;;;;;;;4902449;29;20036;-56
2023/10/18 10:23:12;;;;;;;108.40;21.88;;;;;;;;;;4905191;29;20564;-56
2023/10/18 10:25:38;;;;;;;145.60;71.85;;;;;;;;;;4904776;29;21392;-55
2023/10/18 10:28:14;;;;;;;98.53;8.30;;;;;;;;;;4905815;29;20020;-56
2023/10/18 10:30:43;;;;;;;286.35;141.25;;;;;;;;;;4903869;29;20050;-56
2023/10/18 10:33:12;;;;;;;138.65;33.45;;;;;;;;;;4904533;29;20314;-56
2023/10/18 10:35:44;;;;;;;493.52;272.88;;;;;;;;;;4902767;29;20032;-56
2023/10/18 10:38:13;;;;;;;136.38;18.08;;;;;;;;;;4903492;29;20028;-54
2023/10/18 10:40:39;;;;;;;123.05;38.28;;;;;;;;;;4903431;29;20036;-56
2023/10/18 10:43:18;;;;;;;118.80;31.05;;;;;;;;;;4905666;29;20459;-56
2023/10/18 10:45:43;;;;;;;306.35;140.80;;;;;;;;;;4903454;29;20036;-54
2023/10/18 10:48:18;;;;;;;132.23;26.20;;;;;;;;;;4904688;29;20456;-56
2023/10/18 10:50:50;;;;;;;213.43;95.55;;;;;;;;;;4902888;29;20586;-55
2023/10/18 10:53:32;;;;;;;229.10;110.03;;;;;;;;;;4904581;29;20046;-57
2023/10/18 10:56:03;;;;;;;119.90;11.10;;;;;;;;;;4904030;29;20029;-56
2023/10/18 10:58:31;;;;;;;179.98;38.78;;;;;;;;;;4901679;29;20249;-55
2023/10/18 11:01:04;;;;;;;281.17;128.95;;;;;;;;;;4903723;29;20044;-56
2023/10/18 11:03:54;;;;;;;193.40;51.53;;;;;;;;;;4903846;29;20036;-56
2023/10/18 11:06:23;;;;;;;109.60;8.30;;;;;;;;;;4904977;29;20033;-55
2023/10/18 11:08:50;;;;;;;140.82;27.73;;;;;;;;;;4904272;29;20024;-56
2023/10/18 11:11:15;;;;;;;236.43;152.27;;;;;;;;;;4903889;29;20750;-55
2023/10/18 11:13:41;;;;;;;132.30;8.83;;;;;;;;;;4901561;29;20092;-55
2023/10/18 11:16:07;;;;;;;136.85;32.25;;;;;;;;;;4903175;29;20261;-55
2023/10/18 11:18:35;;;;;;;218.32;43.20;;;;;;;;;;4902897;29;20016;-54
2023/10/18 11:23:46;;;;;;;89.22;9.20;;;;;;;;;;4903184;29;20062;-56
2023/10/18 11:26:19;;;;;;;136.38;56.05;;;;;;;;;;4901936;29;20119;-56
2023/10/18 11:28:44;;;;;;;166.65;55.30;;;;;;;;;;4902668;29;20039;-56
2023/10/18 11:31:10;;;;;;;85.07;7.43;;;;;;;;;;4898371;29;20056;-55
2023/10/18 11:33:56;;;;;;;159.43;21.00;;;;;;;;;;4902422;29;20032;-54
2023/10/18 11:36:21;;;;;;;92.30;6.57;;;;;;;;;;4902873;29;20127;-55
2023/10/18 11:41:34;;;;;;;123.57;8.52;;;;;;;;;;4903226;29;20427;-56
2023/10/18 11:44:01;;;;;;;79.90;7.10;;;;;;;;;;4904002;29;20024;-56
2023/10/18 11:46:26;;;;;;;138.18;9.38;;;;;;;;;;4902408;29;20040;-55
2023/10/18 11:48:53;;;;;;;108.30;16.73;;;;;;;;;;4904752;29;20028;-56
2023/10/18 11:51:18;;;;;;;96.55;41.38;;;;;;;;;;4904141;29;20724;-55
2023/10/18 11:53:51;;;;;;;146.10;10.20;;;;;;;;;;4902668;29;20500;-56
2023/10/18 11:56:17;;;;;;;107.85;10.95;;;;;;;;;;4903820;29;20028;-56
2023/10/18 11:58:58;;;;;;;187.93;10.38;;;;;;;;;;4903140;29;20049;-54
2023/10/18 12:01:31;;;;;;;157.10;60.40;;;;;;;;;;4904395;29;20119;-56
2023/10/18 12:03:56;;;;;;;128.32;21.48;;;;;;;;;;4904333;29;20040;-55
2023/10/18 12:06:22;;;;;;;66.03;5.78;;;;;;;;;;4903406;29;20062;-57
2023/10/18 12:09:00;;;;;;;169.20;34.25;;;;;;;;;;4901766;29;20115;-56
2023/10/18 12:11:33;;;;;;;202.68;41.38;;;;;;;;;;4901216;29;20163;-55
2023/10/18 12:13:59;;;;;;;149.32;27.75;;;;;;;;;;4903944;29;20114;-55
2023/10/18 12:16:24;;;;;;;200.32;87.50;;;;;;;;;;4902883;29;20039;-54
2023/10/18 12:18:52;;;;;;;95.97;7.15;;;;;;;;;;4901759;29;20020;-55
2023/10/18 12:21:20;;;;;;;99.72;37.78;;;;;;;;;;4903452;29;20030;-55
2023/10/18 12:23:46;;;;;;;174.65;52.22;;;;;;;;;;4902897;29;21368;-56
2023/10/18 12:26:11;;;;;;;186.00;109.40;;;;;;;;;;4902816;29;20032;-56
2023/10/18 12:28:37;;;;;;;140.85;8.93;;;;;;;;;;4902934;29;20528;-56
2023/10/18 12:31:12;;;;;;;122.53;26.55;;;;;;;;;;4902770;29;20067;-56
2023/10/18 12:33:40;;;;;;;196.90;11.48;;;;;;;;;;4902003;29;20066;-56
2023/10/18 12:36:07;;;;;;;90.13;6.75;;;;;;;;;;4902265;29;20035;-55
2023/10/18 12:38:32;;;;;;;188.45;11.55;;;;;;;;;;4901592;29;20054;-54
2023/10/18 12:41:02;;;;;;;87.13;6.85;;;;;;;;;;4903647;29;20036;-56
2023/10/18 12:43:31;;;;;;;186.68;73.35;;;;;;;;;;4903099;29;20041;-56
2023/10/18 12:45:56;;;;;;;133.60;18.08;;;;;;;;;;4903403;29;20508;-56
2023/10/18 12:48:22;;;;;;;81.90;6.55;;;;;;;;;;4903750;29;20055;-56
2023/10/18 12:50:54;;;;;;;117.85;7.97;;;;;;;;;;4900594;29;20404;-56
2023/10/18 12:55:58;;;;;;;236.90;122.03;;;;;;;;;;4901069;29;20040;-54
2023/10/18 12:58:28;;;;;;;170.98;49.72;;;;;;;;;;4904014;29;20017;-55
2023/10/18 13:00:55;;;;;;;119.60;23.83;;;;;;;;;;4903670;29;20579;-56
2023/10/18 13:03:31;;;;;;;130.40;22.20;;;;;;;;;;4903535;29;20128;-55
2023/10/18 13:05:57;;;;;;;85.45;8.35;;;;;;;;;;4902277;29;20032;-56
2023/10/18 13:08:34;;;;;;;202.88;77.60;;;;;;;;;;4903034;29;20027;-55
2023/10/18 13:13:30;;;;;;;152.55;77.05;;;;;;;;;;4903767;29;20100;-54
2023/10/18 13:15:57;;;;;;;146.98;9.20;;;;;;;;;;4901333;29;20116;-55
2023/10/18 13:18:22;;;;;;;95.25;7.28;;;;;;;;;;4901826;29;20453;-56
2023/10/18 13:20:48;;;;;;;325.53;165.33;;;;;;;;;;4903412;28;20513;-55
2023/10/18 13:23:18;;;;;;;144.45;42.80;;;;;;;;;;4907087;29;20780;-56
2023/10/18 13:25:51;;;;;;;157.20;9.68;;;;;;;;;;4905051;29;20051;-56
2023/10/18 13:28:33;;;;;;;131.43;19.77;;;;;;;;;;4907041;29;20609;-55
2023/10/18 13:31:04;;;;;;;97.18;11.40;;;;;;;;;;4906268;29;20046;-57
2023/10/18 13:33:30;;;;;;;103.13;7.67;;;;;;;;;;4906702;29;20021;-56
2023/10/18 13:35:56;;;;;;;148.10;37.33;;;;;;;;;;4905317;29;20923;-56
2023/10/18 13:38:23;;;;;;;95.15;9.43;;;;;;;;;;4907631;29;20024;-58
2023/10/18 13:40:49;;;;;;;203.07;11.75;;;;;;;;;;4904285;29;20032;-58
2023/10/18 13:43:14;;;;;;;106.20;7.25;;;;;;;;;;4907692;29;20028;-56
2023/10/18 13:45:41;;;;;;;168.03;10.20;;;;;;;;;;4904594;29;20071;-56
2023/10/18 13:48:07;;;;;;;160.70;50.40;;;;;;;;;;4905429;29;20252;-56
2023/10/18 13:50:36;;;;;;;83.53;6.85;;;;;;;;;;4903710;29;20036;-58
2023/10/18 13:53:01;;;;;;;98.45;7.00;;;;;;;;;;4906230;29;20024;-55
2023/10/18 13:55:26;;;;;;;122.07;11.30;;;;;;;;;;4904769;29;20024;-57
2023/10/18 13:57:52;;;;;;;96.00;7.28;;;;;;;;;;4905174;29;20020;-58
2023/10/18 14:00:21;;;;;;;109.10;7.68;;;;;;;;;;4906944;28;20076;-56
2023/10/18 14:02:47;;;;;;;218.68;11.95;;;;;;;;;;4904978;29;20039;-56
2023/10/18 14:05:12;;;;;;;150.52;62.35;;;;;;;;;;4905412;29;20024;-57
2023/10/18 14:07:38;;;;;;;196.88;11.48;;;;;;;;;;4904297;29;20427;-57
2023/10/18 14:10:19;;;;;;;117.80;8.07;;;;;;;;;;4904901;29;20051;-57
2023/10/18 14:12:44;;;;;;;209.15;16.10;;;;;;;;;;4904886;29;20296;-57
2023/10/18 14:15:10;;;;;;;147.98;8.45;;;;;;;;;;4903908;29;20052;-58
2023/10/18 14:17:36;;;;;;;101.55;10.55;;;;;;;;;;4903735;29;20098;-56
2023/10/18 14:20:10;;;;;;;106.07;7.13;;;;;;;;;;4906469;29;20107;-57
2023/10/18 14:22:36;;;;;;;140.82;9.48;;;;;;;;;;4904721;29;20476;-58
2023/10/18 14:25:04;;;;;;;93.28;33.85;;;;;;;;;;4905208;29;20609;-55
2023/10/18 14:27:29;;;;;;;225.30;109.20;;;;;;;;;;4904985;29;20040;-58
2023/10/18 14:29:55;;;;;;;147.70;9.27;;;;;;;;;;4904141;29;20378;-57
2023/10/18 14:32:20;;;;;;;107.35;7.55;;;;;;;;;;4904510;29;20284;-57
2023/10/18 14:34:48;;;;;;;233.57;16.03;;;;;;;;;;4903232;29;20464;-56
2023/10/18 14:37:14;;;;;;;144.70;13.85;;;;;;;;;;4905655;29;20324;-57
2023/10/18 14:39:39;;;;;;;183.48;11.07;;;;;;;;;;4904697;29;20087;-56
2023/10/18 14:42:06;;;;;;;151.17;8.93;;;;;;;;;;4903575;29;20618;-56
2023/10/18 14:44:32;;;;;;;112.70;7.72;;;;;;;;;;4904924;29;20264;-57
2023/10/18 14:46:57;;;;;;;90.40;7.28;;;;;;;;;;4902587;29;20032;-57
2023/10/18 14:49:23;;;;;;;123.38;10.13;;;;;;;;;;4905108;29;20040;-55
2023/10/18 14:51:48;;;;;;;179.63;10.70;;;;;;;;;;4902719;29;20044;-56
2023/10/18 14:54:14;;;;;;;171.45;60.28;;;;;;;;;;4905142;29;20099;-57